Time;durP1;ratioP1;P1;durP2;ratioP2;P2;SDS_P1;SDS_P2;PMS_P1;PMS_P2;Temp;Humidity;BMP_temperature;BMP_pressure;BME280_temperature;BME280_humidity;BME280_pressure;Samples;Min_cycle;Max_cycle;Signal;HPM_P1;HPM_P2
2023/10/24 00:00:36;;;;;;;33.40;24.10;;;;;;;7.73;89.14;98522.95;224795;1289;24266;-74
2023/10/24 00:05:39;;;;;;;34.50;24.80;;;;;;;7.70;89.37;98521.42;224904;1286;22591;-74
2023/10/24 00:10:45;;;;;;;36.10;25.50;;;;;;;7.66;89.42;98515.07;224774;1289;22685;-74
2023/10/24 00:15:52;;;;;;;33.40;25.10;;;;;;;7.60;89.20;98508.86;224799;1285;22535;-74
2023/10/24 00:20:58;;;;;;;41.80;27.70;;;;;;;7.57;89.31;98503.77;224787;1280;22543;-74
2023/10/24 00:26:04;;;;;;;33.20;23.40;;;;;;;7.57;89.62;98499.78;224773;1288;22555;-74
2023/10/24 00:31:10;;;;;;;32.00;23.10;;;;;;;7.58;89.62;98501.05;224853;1289;22553;-75
2023/10/24 00:36:21;;;;;;;31.20;23.00;;;;;;;7.56;89.48;98495.13;224748;1290;22536;-74
2023/10/24 00:41:34;;;;;;;27.40;21.40;;;;;;;7.54;89.98;98483.13;224752;1287;22654;-74
2023/10/24 00:46:42;;;;;;;34.70;23.80;;;;;;;7.54;90.13;98478.95;224765;1286;22605;-74
2023/10/24 00:51:44;;;;;;;30.40;21.90;;;;;;;7.55;90.28;98474.09;224782;1289;22598;-74
2023/10/24 00:57:12;;;;;;;32.20;22.30;;;;;;;7.52;90.10;98466.27;224755;1289;22559;-75
2023/10/24 01:02:26;;;;;;;30.10;21.20;;;;;;;7.52;89.99;98464.60;224836;1289;22586;-74
2023/10/24 01:07:35;;;;;;;;;;;;;;;7.54;90.37;98459.98;224848;1283;22544;-74
2023/10/24 01:12:41;;;;;;;32.80;21.60;;;;;;;7.55;90.39;98465.63;224804;1289;22666;-74
2023/10/24 01:17:48;;;;;;;32.90;22.20;;;;;;;7.58;90.57;98470.19;224827;1286;22549;-73
2023/10/24 01:22:51;;;;;;;31.80;20.80;;;;;;;7.64;90.65;98477.59;224846;1286;22539;-74
2023/10/24 01:27:55;;;;;;;33.30;19.50;;;;;;;7.69;90.81;98465.95;224839;1286;22628;-74
2023/10/24 01:32:59;;;;;;;32.40;20.80;;;;;;;7.73;90.79;98456.46;224787;1286;24397;-74
2023/10/24 01:38:08;;;;;;;26.20;18.40;;;;;;;7.77;90.53;98448.27;224686;1289;22559;-74
2023/10/24 01:43:30;;;;;;;29.50;19.80;;;;;;;7.81;90.46;98448.08;224582;1286;323784;-75
2023/10/24 01:48:34;;;;;;;27.80;18.90;;;;;;;7.85;90.79;98437.46;224808;1289;22622;-75
2023/10/24 01:53:39;;;;;;;28.70;19.00;;;;;;;7.92;91.04;98429.96;224799;1286;22536;-74
2023/10/24 01:58:54;;;;;;;28.50;19.20;;;;;;;7.99;90.66;98417.13;224771;1289;22583;-74
2023/10/24 02:04:11;;;;;;;31.00;20.10;;;;;;;8.08;90.83;98416.73;224797;1289;22552;-74
2023/10/24 02:09:17;;;;;;;25.50;18.50;;;;;;;8.16;90.65;98415.14;224798;1289;22546;-75
2023/10/24 02:14:20;;;;;;;26.20;18.20;;;;;;;8.27;91.08;98406.02;224750;1289;22568;-75
2023/10/24 02:19:23;;;;;;;24.90;17.60;;;;;;;8.32;90.57;98394.35;224781;1289;22562;-74
2023/10/24 02:24:38;;;;;;;26.30;17.80;;;;;;;8.33;90.55;98396.86;224673;1286;22583;-74
2023/10/24 02:29:44;;;;;;;23.60;17.20;;;;;;;8.33;90.14;98402.95;224816;1289;22592;-74
2023/10/24 02:35:00;;;;;;;25.50;16.70;;;;;;;8.33;90.45;98388.94;224801;1286;22560;-74
2023/10/24 02:40:18;;;;;;;;;;;;;;;;;;;;;
2023/10/24 02:45:38;;;;;;;24.90;15.90;;;;;;;8.33;90.30;98392.77;224853;1289;22536;-74
2023/10/24 02:50:44;;;;;;;25.50;15.20;;;;;;;8.40;90.34;98392.09;224877;1286;26085;-75
2023/10/24 02:55:48;;;;;;;18.30;14.10;;;;;;;8.46;90.28;98397.37;224827;1286;22669;-75
2023/10/24 03:01:03;;;;;;;20.20;15.20;;;;;;;8.51;90.25;98398.52;224834;1286;22575;-76
2023/10/24 03:06:18;;;;;;;18.20;13.70;;;;;;;8.58;90.44;98395.22;224863;1286;22556;-75
2023/10/24 03:11:23;;;;;;;19.70;13.30;;;;;;;8.65;90.76;98387.48;224886;1285;22561;-75
2023/10/24 03:16:28;;;;;;;17.40;12.90;;;;;;;8.69;90.23;98384.77;224884;1289;25255;-74
2023/10/24 03:21:31;;;;;;;19.00;12.10;;;;;;;8.69;90.02;98395.59;224879;1289;22561;-74
2023/10/24 03:26:37;;;;;;;18.60;13.20;;;;;;;8.71;90.18;98395.41;224854;1283;22572;-75
2023/10/24 03:31:40;;;;;;;18.20;12.60;;;;;;;8.72;90.08;98388.73;224824;1286;22537;-74
2023/10/24 03:36:43;;;;;;;21.60;12.70;;;;;;;8.71;89.89;98385.33;224816;1289;22599;-75
2023/10/24 03:41:48;;;;;;;20.40;13.80;;;;;;;8.68;89.83;98383.66;224771;1287;22566;-75
2023/10/24 03:46:51;;;;;;;24.20;14.80;;;;;;;8.61;89.76;98363.41;224843;1287;22559;-75
2023/10/24 03:51:55;;;;;;;21.50;15.00;;;;;;;8.53;89.53;98365.42;224805;1286;22555;-75
2023/10/24 03:57:01;;;;;;;18.00;14.10;;;;;;;8.47;89.52;98369.67;224798;1287;22552;-75
2023/10/24 04:02:04;;;;;;;20.60;15.10;;;;;;;8.46;89.54;98375.17;224822;1287;22535;-75
2023/10/24 04:07:07;;;;;;;21.10;14.90;;;;;;;8.47;89.71;98371.46;224755;1289;22564;-74
2023/10/24 04:12:17;;;;;;;22.30;15.20;;;;;;;8.43;89.87;98359.81;224816;1289;22571;-75
2023/10/24 04:17:38;;;;;;;22.00;15.20;;;;;;;8.39;89.69;98346.63;224810;1287;22558;-75
2023/10/24 04:22:46;;;;;;;22.90;16.00;;;;;;;8.38;89.80;98329.36;224830;1286;23097;-74
2023/10/24 04:27:59;;;;;;;23.30;15.50;;;;;;;8.36;89.79;98325.86;224789;1286;22560;-75
2023/10/24 04:33:11;;;;;;;20.60;14.80;;;;;;;8.34;89.41;98313.19;224787;1289;22578;-74
2023/10/24 04:38:22;;;;;;;25.80;15.90;;;;;;;8.30;89.52;98311.89;224798;1286;22569;-75
2023/10/24 04:43:25;;;;;;;25.70;16.30;;;;;;;8.23;89.42;98317.48;224803;1287;22549;-74
2023/10/24 04:48:28;;;;;;;22.20;15.20;;;;;;;8.18;89.92;98330.25;224784;1289;22859;-74
2023/10/24 04:53:32;;;;;;;24.70;15.00;;;;;;;8.15;89.82;98340.33;224852;1279;22537;-74
2023/10/24 04:58:35;;;;;;;22.80;15.90;;;;;;;8.10;89.60;98360.35;224735;1289;22548;-74
2023/10/24 05:03:38;;;;;;;21.80;15.90;;;;;;;8.06;90.06;98339.55;224797;1286;22559;-74
2023/10/24 05:08:56;;;;;;;;;;;;;;;;;;;;;
2023/10/24 05:13:59;;;;;;;25.60;17.00;;;;;;;8.02;89.95;98346.15;224836;1289;25467;-74
2023/10/24 05:19:03;;;;;;;22.40;16.40;;;;;;;8.03;90.39;98352.25;224782;1286;22555;-74
2023/10/24 05:24:25;;;;;;;25.10;16.10;;;;;;;8.03;89.95;98346.46;224810;1289;22559;-74
2023/10/24 05:30:00;;;;;;;23.70;16.40;;;;;;;8.04;90.27;98341.70;224744;1289;22552;-75
2023/10/24 05:35:08;;;;;;;27.80;17.20;;;;;;;8.02;89.86;98325.05;224816;1270;22557;-74
2023/10/24 05:40:11;;;;;;;25.80;16.80;;;;;;;8.03;89.98;98303.27;224840;1286;24975;-74
2023/10/24 05:45:14;;;;;;;29.60;18.80;;;;;;;8.02;89.87;98287.35;224443;1270;22549;-74
2023/10/24 05:50:19;;;;;;;27.00;19.80;;;;;;;8.04;90.22;98276.75;224577;1289;22570;-72
2023/10/24 05:55:22;;;;;;;23.20;18.00;;;;;;;8.11;90.41;98290.64;224612;1284;22976;-74
2023/10/24 06:00:27;;;;;;;24.10;17.30;;;;;;;8.22;90.56;98318.33;224405;1283;22565;-75
2023/10/24 06:05:32;;;;;;;21.30;15.30;;;;;;;8.33;90.26;98347.84;224385;1270;22475;-76
2023/10/24 06:10:34;;;;;;;20.30;15.80;;;;;;;8.47;90.44;98373.86;224493;1274;22549;-76
2023/10/24 06:15:45;;;;;;;25.20;16.40;;;;;;;8.63;90.38;98383.44;224399;1283;22596;-75
2023/10/24 06:20:57;;;;;;;22.70;15.70;;;;;;;8.79;90.59;98381.99;224374;1286;23883;-76
2023/10/24 06:26:00;;;;;;;22.30;15.30;;;;;;;8.98;90.51;98367.20;224382;1285;22552;-76
2023/10/24 06:31:14;;;;;;;20.40;14.10;;;;;;;9.14;90.20;98346.02;224320;1267;22560;-75
2023/10/24 06:36:22;;;;;;;17.90;13.80;;;;;;;9.28;90.28;98336.69;224301;1270;22594;-75
2023/10/24 06:41:48;;;;;;;18.40;12.30;;;;;;;9.43;89.84;98333.94;224311;1271;22575;-78
2023/10/24 06:47:15;;;;;;;20.10;12.10;;;;;;;9.59;89.85;98312.39;224236;1279;22555;-76
2023/10/24 06:52:27;;;;;;;15.30;10.90;;;;;;;9.75;89.53;98311.40;224238;1285;22567;-76
2023/10/24 06:57:43;;;;;;;19.00;11.30;;;;;;;9.94;89.85;98315.06;224107;1277;22587;-76
2023/10/24 07:03:07;;;;;;;14.00;10.40;;;;;;;10.12;89.38;98309.84;223828;1285;22560;-75
2023/10/24 07:08:11;;;;;;;14.10;10.10;;;;;;;10.30;89.36;98303.88;223918;1284;22588;-76
2023/10/24 07:13:30;;;;;;;14.10;10.40;;;;;;;10.45;89.06;98276.35;224169;1284;24842;-75
2023/10/24 07:18:34;;;;;;;13.10;10.10;;;;;;;10.64;88.97;98257.65;224373;1280;22708;-74
2023/10/24 07:23:42;;;;;;;13.00;10.00;;;;;;;10.92;88.97;98237.86;224372;1280;23081;-74
2023/10/24 07:28:45;;;;;;;14.40;9.90;;;;;;;11.23;88.65;98229.19;224466;1283;22576;-75
2023/10/24 07:33:48;;;;;;;17.20;9.90;;;;;;;11.50;88.55;98239.52;224513;1283;25949;-75
2023/10/24 07:38:51;;;;;;;12.50;9.20;;;;;;;11.72;88.09;98253.96;224527;1282;22570;-75
2023/10/24 07:43:57;;;;;;;11.20;8.40;;;;;;;11.97;87.92;98259.93;224452;1282;25032;-75
2023/10/24 07:49:07;;;;;;;12.30;8.60;;;;;;;12.22;87.57;98261.13;224559;1280;22559;-75
2023/10/24 07:54:13;;;;;;;11.60;8.10;;;;;;;12.44;87.00;98258.85;224575;1285;22552;-75
2023/10/24 07:59:41;;;;;;;;;;;;;;;;;;;;;
2023/10/24 08:05:12;;;;;;;34.00;29.30;;;;;;;12.93;86.29;98237.80;224211;1286;24281;-79
2023/10/24 08:10:18;;;;;;;12.00;8.30;;;;;;;13.25;86.17;98238.73;224150;1283;22564;-79
2023/10/24 08:15:20;;;;;;;11.70;7.10;;;;;;;13.51;85.60;98252.38;224319;1284;23018;-79
2023/10/24 08:20:32;;;;;;;11.60;6.10;;;;;;;13.77;85.39;98260.27;224224;1283;22561;-80
2023/10/24 08:25:37;;;;;;;8.90;5.80;;;;;;;14.06;85.21;98270.15;224326;1284;22625;-81
2023/10/24 08:31:21;;;;;;;7.30;5.60;;;;;;;14.37;84.63;98283.71;223949;1283;22611;-79
2023/10/24 08:36:37;;;;;;;;;;;;;;;14.60;83.80;98255.58;224047;1286;24275;-80
2023/10/24 08:41:53;;;;;;;7.40;5.00;;;;;;;14.75;82.83;98235.75;224058;1280;22570;-81
2023/10/24 08:47:21;;;;;;;7.40;5.70;;;;;;;14.82;82.01;98228.91;224161;1289;22577;-81
2023/10/24 08:52:54;;;;;;;6.20;4.50;;;;;;;14.81;81.29;98207.77;223563;1286;25352;-78
2023/10/24 08:58:08;;;;;;;7.00;4.70;;;;;;;14.79;81.14;98199.48;223435;1292;22570;-81
2023/10/24 09:03:54;;;;;;;6.40;4.70;;;;;;;14.92;81.36;98182.81;223647;1292;22879;-81
2023/10/24 09:09:00;;;;;;;7.40;5.20;;;;;;;15.10;80.72;98173.02;223833;1289;24897;-81
2023/10/24 09:14:32;;;;;;;;;;;;;;;;;;;;;
2023/10/24 09:20:28;;;;;;;7.30;5.00;;;;;;;15.46;80.08;98190.79;223868;1292;22568;-80
2023/10/24 09:26:22;;;;;;;;;;;;;;;;;;;;;
2023/10/24 09:31:53;;;;;;;8.30;5.40;;;;;;;16.14;79.74;98200.77;224169;1288;22545;-81
2023/10/24 09:37:11;;;;;;;10.20;6.30;;;;;;;16.49;79.16;98188.13;224071;1280;22602;-81
2023/10/24 09:42:40;;;;;;;7.40;5.10;;;;;;;16.83;78.11;98166.91;224124;1287;24268;-83
2023/10/24 09:47:58;;;;;;;7.70;4.90;;;;;;;17.03;77.15;98164.11;224047;1282;22576;-81
2023/10/24 09:54:04;;;;;;;7.30;4.30;;;;;;;17.07;76.10;98151.48;224205;1291;22543;-82
2023/10/24 10:00:34;;;;;;;6.00;4.40;;;;;;;17.23;76.43;98140.91;223139;1295;22549;-81
2023/10/24 10:06:27;;;;;;;5.40;4.00;;;;;;;17.49;76.08;98109.69;223093;1289;22621;-82
2023/10/24 10:12:33;;;;;;;5.70;4.00;;;;;;;17.65;75.27;98097.82;223732;1289;22991;-81
2023/10/24 10:18:12;;;;;;;6.70;4.00;;;;;;;17.77;75.00;98091.87;224102;1286;22565;-78
2023/10/24 10:24:04;;;;;;;5.10;3.20;;;;;;;17.89;74.48;98077.36;224468;1286;22585;-80
2023/10/24 10:29:48;;;;;;;8.50;4.00;;;;;;;18.00;74.28;98084.83;224463;1286;23028;-77
2023/10/24 10:35:49;;;;;;;4.70;3.40;;;;;;;18.07;73.61;98082.19;224462;1280;24358;-80
2023/10/24 10:42:50;;;;;;;;;;;;;;;;;;;;;
2023/10/24 10:49:43;;;;;;;4.80;3.40;;;;;;;18.27;72.48;98068.60;224451;1282;22628;-83
2023/10/24 11:03:04;;;;;;;4.30;3.60;;;;;;;18.41;70.85;98023.66;224542;1285;22606;-77
2023/10/24 11:08:40;;;;;;;4.60;3.80;;;;;;;18.38;71.04;97996.33;224720;1286;22562;-75
2023/10/24 11:15:17;;;;;;;6.00;4.30;;;;;;;18.43;71.53;97999.56;224564;1283;22570;-76
2023/10/24 11:21:40;;;;;;;5.00;3.10;;;;;;;18.80;71.34;98012.02;224420;1289;22694;-80
2023/10/24 11:27:47;;;;;;;4.00;2.60;;;;;;;19.08;70.62;98031.33;224511;1283;22573;-79
2023/10/24 11:33:26;;;;;;;4.40;2.60;;;;;;;19.29;69.77;98044.21;224509;1276;22743;-80
2023/10/24 11:38:52;;;;;;;4.50;2.60;;;;;;;19.39;69.30;98042.60;224568;1270;23044;-81
2023/10/24 11:44:17;;;;;;;3.70;2.40;;;;;;;19.45;68.92;98038.27;224310;1282;22569;-81
2023/10/24 11:49:35;;;;;;;5.90;3.30;;;;;;;19.46;68.85;98024.75;224372;1286;22612;-77
2023/10/24 11:54:51;;;;;;;3.60;2.70;;;;;;;19.46;68.86;98016.23;224522;1289;22559;-80
2023/10/24 12:00:13;;;;;;;4.20;2.50;;;;;;;19.45;68.79;98009.05;224573;1282;22574;-81
2023/10/24 12:05:41;;;;;;;;;;;;;;;;;;;;;
2023/10/24 12:11:34;;;;;;;4.00;2.80;;;;;;;19.22;68.47;97981.02;223955;1289;22566;-82
2023/10/24 12:16:55;;;;;;;4.70;3.20;;;;;;;19.17;68.50;97963.12;223721;1289;23588;-83
2023/10/24 12:22:55;;;;;;;5.80;2.80;;;;;;;19.11;68.51;97956.95;224058;1275;22626;-78
2023/10/24 12:28:12;;;;;;;4.80;3.30;;;;;;;19.09;68.43;97947.89;224209;1288;22563;-82
2023/10/24 12:33:32;;;;;;;4.70;3.00;;;;;;;19.08;68.01;97937.50;224378;1286;22980;-82
2023/10/24 12:38:49;;;;;;;11.40;3.40;;;;;;;19.07;67.87;97920.84;224360;1283;22583;-84
2023/10/24 12:43:56;;;;;;;7.30;3.40;;;;;;;19.00;67.43;97903.36;224468;1267;25267;-84
2023/10/24 12:49:16;;;;;;;5.50;3.00;;;;;;;18.88;67.37;97905.52;224485;1283;22670;-83
2023/10/24 12:54:21;;;;;;;11.10;4.20;;;;;;;18.82;67.54;97904.65;224572;1269;24309;-82
2023/10/24 12:59:52;;;;;;;6.20;3.40;;;;;;;18.79;67.60;97898.27;224580;1289;25925;-83
2023/10/24 13:05:21;;;;;;;5.50;3.90;;;;;;;18.73;67.72;97883.46;224358;1286;22551;-83
2023/10/24 13:11:12;;;;;;;;;;;;;;;;;;;;;
2023/10/24 13:16:38;;;;;;;3.90;2.80;;;;;;;18.60;67.76;97860.02;224610;1283;24322;-78
2023/10/24 13:21:56;;;;;;;5.20;3.30;;;;;;;18.52;67.62;97859.02;224491;1289;22556;-81
2023/10/24 13:27:56;;;;;;;5.20;3.40;;;;;;;18.41;67.61;97853.30;224760;1283;24771;-81
2023/10/24 13:33:00;;;;;;;4.50;2.60;;;;;;;18.24;67.26;97832.02;224778;1270;22624;-80
2023/10/24 13:38:20;;;;;;;5.00;3.10;;;;;;;18.12;67.68;97826.41;224869;1283;22613;-81
2023/10/24 13:43:41;;;;;;;;;;;;;;;;;;;;;
2023/10/24 13:49:05;;;;;;;7.00;3.40;;;;;;;17.98;67.50;97818.58;224758;1282;22582;-77
2023/10/24 13:54:27;;;;;;;5.90;3.40;;;;;;;17.92;67.52;97808.40;224459;1277;23261;-79
2023/10/24 13:59:32;;;;;;;9.80;3.70;;;;;;;17.80;67.44;97796.88;224418;1282;22550;-79
2023/10/24 14:05:04;;;;;;;6.50;4.00;;;;;;;17.71;67.52;97793.04;224515;1280;24410;-79
2023/10/24 14:10:08;;;;;;;7.00;4.00;;;;;;;17.58;67.65;97796.09;224469;1286;22538;-79
2023/10/24 14:15:15;;;;;;;6.00;3.90;;;;;;;17.44;67.66;97792.49;224580;1291;22559;-79
2023/10/24 14:20:17;;;;;;;6.10;4.90;;;;;;;17.29;67.93;97781.27;224590;1291;22549;-79
2023/10/24 14:25:23;;;;;;;8.30;4.80;;;;;;;17.15;68.17;97771.25;224517;1289;22598;-79
2023/10/24 14:30:28;;;;;;;7.70;4.60;;;;;;;17.03;68.40;97754.48;224569;1289;22621;-79
2023/10/24 14:35:35;;;;;;;7.80;5.30;;;;;;;16.91;68.69;97745.30;224514;1289;22567;-79
2023/10/24 14:40:49;;;;;;;10.30;6.00;;;;;;;16.76;68.96;97727.10;224677;1289;22560;-80
2023/10/24 14:45:57;;;;;;;10.30;5.70;;;;;;;16.62;69.28;97721.93;224752;1290;22581;-79
2023/10/24 14:51:00;;;;;;;7.10;4.30;;;;;;;16.46;69.43;97719.05;224701;1289;22570;-79
2023/10/24 14:56:06;;;;;;;6.70;4.70;;;;;;;16.30;69.82;97723.63;224767;1286;22573;-79
2023/10/24 15:01:15;;;;;;;6.70;4.60;;;;;;;16.12;70.13;97717.61;224725;1286;26006;-79
2023/10/24 15:06:28;;;;;;;8.60;5.30;;;;;;;15.97;70.76;97714.14;224762;1286;22575;-80
2023/10/24 15:11:34;;;;;;;10.60;6.70;;;;;;;15.83;70.87;97715.78;224757;1286;22559;-79
2023/10/24 15:16:37;;;;;;;12.30;6.80;;;;;;;15.69;71.65;97724.55;224749;1283;24765;-79
2023/10/24 15:21:46;;;;;;;12.10;8.10;;;;;;;15.54;71.95;97720.66;224717;1283;22553;-78
2023/10/24 15:26:55;;;;;;;12.60;8.40;;;;;;;15.42;72.39;97705.83;224688;1290;22552;-78
2023/10/24 15:32:31;;;;;;;13.10;8.40;;;;;;;15.28;72.77;97701.27;224721;1283;22607;-78
2023/10/24 15:37:37;;;;;;;14.40;9.10;;;;;;;15.09;73.06;97700.21;224730;1286;22575;-78
2023/10/24 15:43:03;;;;;;;17.20;10.00;;;;;;;14.96;73.73;97692.66;224762;1283;22548;-79
2023/10/24 15:48:22;;;;;;;13.90;10.20;;;;;;;14.84;74.22;97679.44;224701;1290;24566;-78
2023/10/24 15:53:37;;;;;;;17.90;11.30;;;;;;;14.75;74.86;97666.04;224740;1290;22573;-79
2023/10/24 15:58:53;;;;;;;14.30;10.90;;;;;;;14.68;75.05;97654.77;224735;1289;25422;-79
2023/10/24 16:03:56;;;;;;;15.10;10.90;;;;;;;14.58;75.53;97648.01;224725;1289;24564;-78
2023/10/24 16:08:59;;;;;;;15.00;10.40;;;;;;;14.49;76.02;97634.64;224688;1283;22574;-79
2023/10/24 16:14:05;;;;;;;16.40;11.30;;;;;;;14.37;76.48;97620.21;224717;1286;22578;-79
2023/10/24 16:19:08;;;;;;;14.00;11.70;;;;;;;14.27;76.71;97615.15;224699;1290;22586;-79
2023/10/24 16:24:17;;;;;;;17.70;12.00;;;;;;;14.15;77.10;97608.83;224691;1290;22566;-79
2023/10/24 16:29:20;;;;;;;19.40;13.20;;;;;;;14.05;77.57;97597.58;224726;1283;22571;-80
2023/10/24 16:34:28;;;;;;;17.60;13.00;;;;;;;14.00;77.99;97598.22;224693;1288;22552;-79
2023/10/24 16:39:43;;;;;;;19.80;13.40;;;;;;;13.94;78.11;97589.45;224723;1270;25429;-79
2023/10/24 16:44:52;;;;;;;18.80;12.80;;;;;;;13.87;78.26;97583.98;224654;1290;22526;-80
2023/10/24 16:50:00;;;;;;;16.10;12.50;;;;;;;13.83;78.80;97580.96;224776;1280;22589;-79
2023/10/24 16:55:04;;;;;;;19.00;13.30;;;;;;;13.80;79.40;97583.41;224763;1286;22557;-79
2023/10/24 17:00:09;;;;;;;18.30;13.80;;;;;;;13.74;79.08;97580.91;224633;1289;22581;-79
2023/10/24 17:05:15;;;;;;;19.30;14.00;;;;;;;13.70;79.73;97574.73;224621;1289;22654;-78
2023/10/24 17:10:20;;;;;;;17.90;13.50;;;;;;;13.69;79.94;97565.48;224732;1286;24278;-78
2023/10/24 17:15:34;;;;;;;16.20;12.90;;;;;;;13.67;80.26;97552.01;224767;1290;23176;-78
2023/10/24 17:20:41;;;;;;;18.70;14.00;;;;;;;13.67;80.32;97539.68;224725;1289;22640;-78
2023/10/24 17:25:49;;;;;;;18.10;14.10;;;;;;;13.60;80.54;97528.74;224682;1290;25293;-79
2023/10/24 17:30:52;;;;;;;20.60;16.30;;;;;;;13.53;80.82;97519.69;224749;1286;22573;-78
2023/10/24 17:35:59;;;;;;;20.50;14.60;;;;;;;13.48;80.81;97516.16;224694;1290;22566;-78
2023/10/24 17:41:13;;;;;;;21.80;16.30;;;;;;;13.38;81.09;97509.17;224726;1290;22563;-79
2023/10/24 17:46:21;;;;;;;19.50;15.20;;;;;;;13.29;81.47;97505.41;224723;1286;22569;-78
2023/10/24 17:51:42;;;;;;;24.40;16.10;;;;;;;13.24;81.72;97501.10;224634;1290;22724;-79
2023/10/24 17:57:20;;;;;;;20.60;16.20;;;;;;;13.21;82.12;97502.90;224681;1288;25303;-78
2023/10/24 18:02:33;;;;;;;18.70;14.50;;;;;;;13.25;82.67;97479.64;224767;1283;22562;-78
2023/10/24 18:07:44;;;;;;;24.10;19.40;;;;;;;13.28;82.38;97477.20;224726;1286;25418;-79
2023/10/24 18:12:55;;;;;;;20.20;16.10;;;;;;;13.25;82.62;97465.85;224693;1290;22583;-78
2023/10/24 18:17:57;;;;;;;18.30;14.80;;;;;;;13.24;82.73;97460.14;224723;1290;22610;-78
2023/10/24 18:23:03;;;;;;;18.90;15.50;;;;;;;13.22;82.97;97462.39;224715;1289;22572;-78
2023/10/24 18:28:09;;;;;;;22.80;16.90;;;;;;;13.23;83.42;97465.42;224751;1286;22542;-79
2023/10/24 18:33:14;;;;;;;23.60;17.90;;;;;;;13.28;83.86;97468.41;224697;1288;22567;-79
2023/10/24 18:38:18;;;;;;;26.10;19.10;;;;;;;13.35;84.25;97470.50;224772;1290;22668;-79
2023/10/24 18:43:21;;;;;;;25.30;18.60;;;;;;;13.31;84.23;97468.20;224700;1286;22522;-78
2023/10/24 18:48:26;;;;;;;24.90;19.00;;;;;;;13.21;84.29;97465.88;224687;1286;22547;-79
2023/10/24 18:53:30;;;;;;;27.20;20.00;;;;;;;13.09;84.48;97466.41;224672;1286;22598;-79
2023/10/24 18:58:38;;;;;;;28.70;20.70;;;;;;;13.00;84.81;97465.63;224709;1286;22549;-79
2023/10/24 19:03:44;;;;;;;27.50;22.60;;;;;;;12.97;85.08;97468.52;224699;1290;22584;-79
2023/10/24 19:08:47;;;;;;;25.80;20.60;;;;;;;12.95;85.34;97462.22;224712;1286;23079;-79
2023/10/24 19:14:03;;;;;;;23.70;19.80;;;;;;;12.92;85.85;97462.84;224701;1290;22565;-79
2023/10/24 19:19:09;;;;;;;25.60;20.30;;;;;;;12.90;85.96;97454.98;224661;1290;22574;-78
2023/10/24 19:24:37;;;;;;;27.00;20.40;;;;;;;12.87;86.38;97455.30;224715;1286;22548;-78
2023/10/24 19:29:40;;;;;;;28.50;22.30;;;;;;;12.88;86.86;97451.97;224742;1286;22610;-78
2023/10/24 19:34:43;;;;;;;30.90;22.30;;;;;;;12.85;86.77;97444.53;224775;1286;23069;-79
2023/10/24 19:39:48;;;;;;;26.80;21.40;;;;;;;12.83;87.18;97439.08;224656;1290;22677;-80
2023/10/24 19:44:50;;;;;;;32.20;24.50;;;;;;;12.80;87.27;97426.81;224760;1286;22565;-79
2023/10/24 19:49:55;;;;;;;25.80;20.30;;;;;;;12.75;87.35;97423.09;224722;1289;22575;-79
2023/10/24 19:55:31;;;;;;;26.30;21.20;;;;;;;12.74;87.85;97421.41;224723;1283;24218;-78
2023/10/24 20:00:38;;;;;;;28.50;22.40;;;;;;;12.74;88.09;97408.80;224730;1286;22561;-79
2023/10/24 20:05:48;;;;;;;26.90;21.10;;;;;;;12.74;88.17;97400.54;224806;1290;22552;-78
2023/10/24 20:10:57;;;;;;;27.60;22.60;;;;;;;12.74;88.53;97388.83;224766;1283;22587;-79
2023/10/24 20:16:28;;;;;;;27.10;22.00;;;;;;;12.72;88.59;97378.30;224744;1290;22559;-79
2023/10/24 20:21:31;;;;;;;31.10;23.60;;;;;;;12.73;88.96;97369.88;224753;1286;22578;-79
2023/10/24 20:26:36;;;;;;;29.80;23.30;;;;;;;12.75;89.01;97363.98;224761;1286;24310;-78
2023/10/24 20:31:41;;;;;;;29.70;23.90;;;;;;;12.73;89.06;97353.87;224744;1290;22574;-79
2023/10/24 20:36:44;;;;;;;26.90;22.50;;;;;;;12.72;89.09;97343.61;224606;1290;22564;-80
2023/10/24 20:41:47;;;;;;;26.70;22.40;;;;;;;12.70;89.23;97337.49;224714;1290;22561;-79
2023/10/24 20:46:56;;;;;;;30.30;24.30;;;;;;;12.70;89.56;97335.73;224709;1290;24243;-79
2023/10/24 20:51:58;;;;;;;27.10;22.70;;;;;;;12.71;89.48;97329.52;224717;1289;22685;-79
2023/10/24 20:57:05;;;;;;;127.40;112.80;;;;;;;12.74;89.79;97323.89;224723;1290;22659;-79
2023/10/24 21:02:10;;;;;;;31.00;25.30;;;;;;;12.76;89.75;97315.06;224696;1286;25347;-79
2023/10/24 21:07:19;;;;;;;28.40;22.30;;;;;;;12.78;89.92;97318.59;224701;1290;22587;-78
2023/10/24 21:12:21;;;;;;;32.10;21.50;;;;;;;12.80;90.03;97311.53;224657;1286;22575;-78
2023/10/24 21:17:24;;;;;;;27.20;19.60;;;;;;;12.84;90.10;97305.55;224624;1283;22707;-77
2023/10/24 21:22:29;;;;;;;26.20;18.00;;;;;;;12.86;90.16;97297.42;224663;1286;22547;-77
2023/10/24 21:27:32;;;;;;;23.60;16.20;;;;;;;12.87;90.25;97291.64;224684;1286;22669;-79
2023/10/24 21:32:38;;;;;;;24.40;16.80;;;;;;;12.92;90.67;97283.27;224675;1289;22564;-80
2023/10/24 21:37:44;;;;;;;25.60;15.50;;;;;;;12.96;90.50;97277.08;224669;1289;22556;-79
2023/10/24 21:42:47;;;;;;;23.40;14.80;;;;;;;12.98;90.67;97269.85;224723;1286;22552;-78
2023/10/24 21:47:51;;;;;;;19.30;11.10;;;;;;;13.01;90.81;97260.10;224711;1289;22584;-78
2023/10/24 21:52:57;;;;;;;19.20;11.50;;;;;;;13.07;90.99;97252.13;224684;1289;23679;-78
2023/10/24 21:58:01;;;;;;;21.20;12.10;;;;;;;13.10;90.89;97246.06;224756;1289;22544;-78
2023/10/24 22:03:09;;;;;;;20.60;11.70;;;;;;;13.12;90.92;97248.02;224608;1289;25352;-78
2023/10/24 22:08:35;;;;;;;18.80;11.10;;;;;;;13.14;90.99;97239.36;224764;1266;22555;-77
2023/10/24 22:13:38;;;;;;;21.50;14.40;;;;;;;13.19;91.18;97231.89;224642;1289;25841;-78
2023/10/24 22:18:40;;;;;;;28.70;21.20;;;;;;;13.18;90.95;97228.27;224781;1289;23265;-77
2023/10/24 22:23:43;;;;;;;29.10;22.30;;;;;;;13.13;90.82;97218.07;224727;1289;22578;-77
2023/10/24 22:29:06;;;;;;;25.70;21.30;;;;;;;13.04;90.56;97217.83;224733;1289;22552;-78
2023/10/24 22:34:12;;;;;;;26.90;21.90;;;;;;;12.98;90.98;97212.87;224722;1286;22559;-78
2023/10/24 22:39:16;;;;;;;29.60;23.10;;;;;;;12.97;91.25;97213.21;224731;1286;22578;-77
2023/10/24 22:44:21;;;;;;;31.00;23.10;;;;;;;12.95;91.06;97203.31;224769;1286;24255;-78
2023/10/24 22:49:25;;;;;;;30.60;23.00;;;;;;;12.95;91.10;97199.29;224724;1289;24287;-78
2023/10/24 22:54:30;;;;;;;31.10;22.20;;;;;;;12.94;91.36;97192.80;224690;1289;22659;-78
2023/10/24 22:59:33;;;;;;;33.80;24.00;;;;;;;12.94;91.36;97189.88;224742;1286;24290;-78
2023/10/24 23:04:36;;;;;;;26.70;18.60;;;;;;;12.95;91.44;97180.52;224697;1285;24296;-78
2023/10/24 23:09:38;;;;;;;27.00;17.70;;;;;;;12.97;91.99;97184.58;224734;1286;22589;-78
2023/10/24 23:14:45;;;;;;;28.60;20.10;;;;;;;13.01;91.91;97178.87;224770;1286;22563;-78
2023/10/24 23:19:49;;;;;;;28.80;19.20;;;;;;;13.05;91.82;97174.84;224716;1289;22539;-78
2023/10/24 23:24:57;;;;;;;24.10;18.00;;;;;;;13.10;92.20;97170.50;224757;1286;22539;-78
2023/10/24 23:30:01;;;;;;;26.20;17.80;;;;;;;13.14;91.82;97164.47;224787;1286;22583;-78
2023/10/24 23:35:12;;;;;;;24.10;15.00;;;;;;;13.16;91.96;97163.27;224849;1287;22582;-78
2023/10/24 23:40:19;;;;;;;24.80;16.70;;;;;;;13.19;91.96;97151.52;224795;1278;22553;-78
2023/10/24 23:45:23;;;;;;;22.30;16.70;;;;;;;13.22;92.08;97150.70;224773;1283;22626;-78
2023/10/24 23:50:35;;;;;;;27.20;18.20;;;;;;;13.23;92.04;97152.89;224747;1289;22543;-78
2023/10/24 23:55:42;;;;;;;20.10;15.00;;;;;;;13.26;92.29;97147.80;224797;1289;22552;-78
